createdAt,value
2019-05-07T00:00:13.403Z,101870.77
2019-05-07T00:03:22.110Z,101876.55
2019-05-07T00:06:32.562Z,101885.88
2019-05-07T00:09:43.015Z,101882.48
2019-05-07T00:13:02.507Z,101878.64
2019-05-07T00:16:12.797Z,101886.38
2019-05-07T00:19:23.099Z,101889.12
2019-05-07T00:22:32.665Z,101887.73
2019-05-07T00:25:52.947Z,101870.42
2019-05-07T00:29:02.266Z,101873.64
2019-05-07T00:32:22.322Z,101869.48
2019-05-07T00:35:35.040Z,101871.31
2019-05-07T00:39:34.431Z,101866.88
2019-05-07T00:43:02.673Z,101869.34
2019-05-07T00:46:22.499Z,101877.61
2019-05-07T00:49:42.558Z,101877.73
2019-05-07T00:53:05.294Z,101874.91
2019-05-07T00:56:13.911Z,101881.59
2019-05-07T00:59:24.018Z,101879.59
2019-05-07T01:02:32.651Z,101878.82
2019-05-07T01:05:43.203Z,101876.47
2019-05-07T01:08:52.561Z,101879.16
2019-05-07T01:12:03.159Z,101879.52
2019-05-07T01:15:12.857Z,101874.50
2019-05-07T01:18:23.310Z,101875.62
2019-05-07T01:21:32.633Z,101866.43
2019-05-07T01:24:52.814Z,101869.53
2019-05-07T01:28:02.602Z,101872.70
2019-05-07T01:31:12.556Z,101868.10
2019-05-07T01:34:32.132Z,101865.58
2019-05-07T01:37:42.190Z,101879.75
2019-05-07T01:41:02.713Z,101874.02
2019-05-07T01:44:12.825Z,101883.12
2019-05-07T01:47:23.624Z,101882.76
2019-05-07T01:50:32.326Z,101878.73
2019-05-07T01:53:42.973Z,101883.93
2019-05-07T01:57:02.898Z,101880.95
2019-05-07T02:00:13.084Z,101892.30
2019-05-07T02:03:32.788Z,101879.95
2019-05-07T02:06:59.213Z,101891.19
2019-05-07T02:10:22.740Z,101883.87
2019-05-07T02:13:33.732Z,101886.94
2019-05-07T02:16:41.985Z,101885.56
2019-05-07T02:19:52.616Z,101894.20
2019-05-07T02:23:02.823Z,101895.67
2019-05-07T02:26:13.325Z,101891.91
2019-05-07T02:29:22.788Z,101889.42
2019-05-07T02:32:43.183Z,101886.68
2019-05-07T02:35:53.422Z,101896.12
2019-05-07T02:39:18.094Z,101892.95
2019-05-07T02:42:26.874Z,101902.47
2019-05-07T02:46:20.572Z,101902.60
2019-05-07T02:49:45.631Z,101900.28
2019-05-07T02:52:59.777Z,101902.38
2019-05-07T02:56:26.547Z,101900.17
2019-05-07T02:59:35.212Z,101908.34
2019-05-07T03:02:43.946Z,101915.77
2019-05-07T03:05:53.796Z,101920.56
2019-05-07T03:09:03.253Z,101917.33
2019-05-07T03:12:13.123Z,101893.88
2019-05-07T03:15:24.253Z,101894.00
2019-05-07T03:18:33.468Z,101902.11
2019-05-07T03:21:55.372Z,101895.59
2019-05-07T03:25:10.231Z,101895.00
2019-05-07T03:28:53.622Z,101899.16
2019-05-07T03:32:37.809Z,101908.44
2019-05-07T03:35:48.958Z,101908.23
2019-05-07T03:38:57.624Z,101894.41
2019-05-07T03:42:06.273Z,101901.40
2019-05-07T03:45:35.074Z,101895.31
2019-05-07T03:49:04.770Z,101894.47
2019-05-07T03:52:14.606Z,101905.54
2019-05-07T03:55:23.504Z,101896.30
2019-05-07T03:58:34.002Z,101908.30
2019-05-07T04:01:46.677Z,101901.24
2019-05-07T04:05:06.137Z,101901.70
2019-05-07T04:08:24.921Z,101900.36
2019-05-07T04:11:33.842Z,101895.31
2019-05-07T04:14:53.591Z,101905.13
2019-05-07T04:18:03.626Z,101900.91
2019-05-07T04:21:13.972Z,101900.06
2019-05-07T04:24:42.905Z,101897.64
2019-05-07T04:28:06.736Z,101903.36
2019-05-07T04:31:15.237Z,101899.57
2019-05-07T04:34:44.517Z,101904.41
2019-05-07T04:37:53.495Z,101903.92
2019-05-07T04:41:03.774Z,101896.89
2019-05-07T04:44:14.401Z,101900.27
2019-05-07T04:47:38.687Z,101897.63
2019-05-07T04:50:42.981Z,101900.17
2019-05-07T04:53:46.683Z,101903.71
2019-05-07T04:56:55.286Z,101907.69
2019-05-07T05:00:05.269Z,101906.86
2019-05-07T05:03:23.823Z,101915.44
2019-05-07T05:06:42.835Z,101907.55
2019-05-07T05:09:53.166Z,101912.92
2019-05-07T05:13:13.087Z,101909.03
2019-05-07T05:16:25.996Z,101912.98
2019-05-07T05:19:34.693Z,101919.81
2019-05-07T05:22:53.210Z,101912.52
2019-05-07T05:26:02.012Z,101920.59
2019-05-07T05:29:12.103Z,101927.19
2019-05-07T05:32:22.693Z,101918.72
2019-05-07T05:35:32.080Z,101915.93
2019-05-07T05:38:42.330Z,101925.15
2019-05-07T05:42:09.286Z,101912.83
2019-05-07T05:45:34.236Z,101924.53
2019-05-07T05:48:43.127Z,101913.85
2019-05-07T05:52:12.472Z,101920.66
2019-05-07T05:55:22.674Z,101918.81
2019-05-07T05:58:56.274Z,101923.44
2019-05-07T06:02:23.265Z,101927.88
2019-05-07T06:05:55.017Z,101925.91
2019-05-07T06:09:21.906Z,101922.01
2019-05-07T06:13:07.985Z,101919.30
2019-05-07T06:16:21.946Z,101927.08
2019-05-07T06:19:36.416Z,101919.57
2019-05-07T06:23:35.736Z,101916.70
2019-05-07T06:27:02.963Z,101929.13
2019-05-07T06:30:12.861Z,101925.78
2019-05-07T06:33:22.928Z,101927.48
2019-05-07T06:36:33.468Z,101940.45
2019-05-07T06:39:52.961Z,101935.20
2019-05-07T06:43:21.841Z,101931.59
2019-05-07T06:46:48.850Z,101929.13
2019-05-07T06:49:58.232Z,101931.31
2019-05-07T06:53:05.340Z,101926.58
2019-05-07T06:56:24.175Z,101931.50
2019-05-07T06:59:42.195Z,101924.89
2019-05-07T07:03:17.867Z,101943.13
2019-05-07T07:06:29.433Z,101946.67
2019-05-07T07:09:53.909Z,101937.58
2019-05-07T07:13:02.389Z,101933.35
2019-05-07T07:16:12.702Z,101926.42
2019-05-07T07:19:32.540Z,101927.42
2019-05-07T07:22:42.584Z,101928.45
2019-05-07T07:25:52.261Z,101927.77
2019-05-07T07:29:02.033Z,101925.05
2019-05-07T07:32:12.743Z,101922.72
2019-05-07T07:35:22.538Z,101918.82
2019-05-07T07:38:35.590Z,101927.27
2019-05-07T07:41:48.145Z,101932.00
2019-05-07T07:45:49.032Z,101920.01
2019-05-07T07:49:07.810Z,101924.41
2019-05-07T07:52:06.422Z,101929.14
2019-05-07T07:55:17.786Z,101928.11
2019-05-07T07:58:48.229Z,101921.53
2019-05-07T08:02:05.685Z,101923.22
2019-05-07T08:05:33.749Z,101927.77
2019-05-07T08:08:42.538Z,101925.23
2019-05-07T08:11:52.689Z,101925.73
2019-05-07T08:15:14.767Z,101932.00
2019-05-07T08:18:13.403Z,101927.08
2019-05-07T08:21:22.896Z,101914.59
2019-05-07T08:24:42.645Z,101910.70
2019-05-07T08:27:53.083Z,101911.87
2019-05-07T08:31:19.199Z,101919.14
2019-05-07T08:34:42.873Z,101918.08
2019-05-07T08:37:51.856Z,101920.92
2019-05-07T08:41:02.327Z,101922.95
2019-05-07T08:44:15.790Z,101922.50
2019-05-07T08:47:34.527Z,101923.49
2019-05-07T08:50:43.089Z,101915.17
2019-05-07T08:54:05.664Z,101916.35
2019-05-07T08:57:24.693Z,101918.27
2019-05-07T09:00:33.195Z,101912.11
2019-05-07T09:03:44.744Z,101904.33
2019-05-07T09:06:53.279Z,101908.02
2019-05-07T09:10:02.438Z,101912.86
2019-05-07T09:13:12.572Z,101904.08
2019-05-07T09:16:23.260Z,101905.38
2019-05-07T09:19:32.394Z,101903.15
2019-05-07T09:22:42.698Z,101898.41
2019-05-07T09:25:52.246Z,101897.35
2019-05-07T09:29:19.473Z,101901.63
2019-05-07T09:32:37.154Z,101894.68
2019-05-07T09:36:07.086Z,101897.48
2019-05-07T09:39:32.312Z,101892.44
2019-05-07T09:42:42.196Z,101888.66
2019-05-07T09:45:52.323Z,101888.84
2019-05-07T09:49:02.941Z,101885.13
2019-05-07T09:52:12.301Z,101889.81
2019-05-07T09:55:23.178Z,101888.56
2019-05-07T09:58:36.562Z,101894.61
2019-05-07T10:01:42.006Z,101882.75
2019-05-07T10:04:52.651Z,101876.36
2019-05-07T10:08:01.804Z,101873.75
2019-05-07T10:11:12.335Z,101865.05
2019-05-07T10:14:22.407Z,101870.10
2019-05-07T10:17:45.880Z,101875.68
2019-05-07T10:20:54.548Z,101867.05
2019-05-07T10:24:03.172Z,101867.83
2019-05-07T10:27:12.801Z,101854.83
2019-05-07T10:30:21.965Z,101862.70
2019-05-07T10:33:32.207Z,101863.30
2019-05-07T10:36:52.311Z,101853.72
2019-05-07T10:40:03.006Z,101861.83
2019-05-07T10:43:11.659Z,101859.86
2019-05-07T10:46:28.053Z,101863.32
2019-05-07T10:49:42.828Z,101862.88
2019-05-07T10:52:52.843Z,101859.21
2019-05-07T10:56:02.517Z,101851.95
2019-05-07T10:59:12.229Z,101847.80
2019-05-07T11:02:26.226Z,101852.55
2019-05-07T11:05:34.753Z,101855.19
2019-05-07T11:08:44.597Z,101856.16
2019-05-07T11:11:53.193Z,101847.22
2019-05-07T11:15:02.259Z,101847.35
2019-05-07T11:18:26.076Z,101843.94
2019-05-07T11:21:34.637Z,101841.92
2019-05-07T11:24:42.767Z,101826.24
2019-05-07T11:27:52.387Z,101828.85
2019-05-07T11:31:02.089Z,101831.71
2019-05-07T11:34:11.916Z,101832.25
2019-05-07T11:37:22.566Z,101825.63
2019-05-07T11:40:34.588Z,101820.55
2019-05-07T11:44:02.643Z,101835.34
2019-05-07T11:47:29.297Z,101827.68
2019-05-07T11:51:01.409Z,101827.17
2019-05-07T11:54:12.383Z,101829.80
2019-05-07T11:57:22.080Z,101825.70
2019-05-07T12:00:57.430Z,101829.88
2019-05-07T12:04:06.234Z,101816.95
2019-05-07T12:07:14.780Z,101808.66
2019-05-07T12:10:23.546Z,101808.26
2019-05-07T12:13:32.448Z,101811.33
2019-05-07T12:16:42.661Z,101809.48
2019-05-07T12:19:52.654Z,101806.83
2019-05-07T12:23:02.857Z,101811.50
2019-05-07T12:26:12.765Z,101819.80
2019-05-07T12:29:32.368Z,101805.61
2019-05-07T12:32:49.096Z,101811.38
2019-05-07T12:36:22.786Z,101801.58
2019-05-07T12:39:31.959Z,101795.31
2019-05-07T12:42:42.419Z,101786.77
2019-05-07T12:45:52.418Z,101785.56
2019-05-07T12:49:03.162Z,101785.81
2019-05-07T12:52:27.051Z,101780.48
2019-05-07T12:55:56.799Z,101767.94
2019-05-07T12:59:05.894Z,101779.95
2019-05-07T13:02:42.057Z,101770.84
2019-05-07T13:05:52.117Z,101766.61
2019-05-07T13:09:00.264Z,101767.85
2019-05-07T13:12:19.214Z,101765.91
2019-05-07T13:15:28.433Z,101753.91
2019-05-07T13:18:47.288Z,101753.87
2019-05-07T13:21:56.085Z,101758.10
2019-05-07T13:25:03.240Z,101757.71
2019-05-07T13:28:11.947Z,101767.01
2019-05-07T13:31:22.857Z,101759.16
2019-05-07T13:34:42.694Z,101759.81
2019-05-07T13:38:11.827Z,101763.87
2019-05-07T13:41:40.207Z,101758.77
2019-05-07T13:44:56.751Z,101752.28
2019-05-07T13:48:23.770Z,101749.68
2019-05-07T13:51:33.886Z,101754.16
2019-05-07T13:54:42.619Z,101755.58
2019-05-07T13:57:52.412Z,101758.41
2019-05-07T14:01:39.290Z,101755.78
2019-05-07T14:05:04.959Z,101746.62
2019-05-07T14:08:14.213Z,101750.06
2019-05-07T14:11:23.055Z,101746.44
2019-05-07T14:14:34.524Z,101737.42
2019-05-07T14:17:42.132Z,101741.84
2019-05-07T14:20:50.781Z,101744.70
2019-05-07T14:23:59.402Z,101744.50
2019-05-07T14:27:08.191Z,101749.16
2019-05-07T14:30:17.331Z,101745.08
2019-05-07T14:33:43.922Z,101740.80
2019-05-07T14:37:01.946Z,101734.34
2019-05-07T14:40:12.895Z,101733.95
2019-05-07T14:43:43.631Z,101732.59
2019-05-07T14:47:14.849Z,101731.70
2019-05-07T14:50:23.521Z,101728.37
2019-05-07T14:53:32.894Z,101720.56
2019-05-07T14:56:51.896Z,101717.78
2019-05-07T15:00:03.263Z,101712.88
2019-05-07T15:03:12.629Z,101715.44
2019-05-07T15:06:21.970Z,101709.83
2019-05-07T15:09:32.107Z,101711.51
2019-05-07T15:12:52.194Z,101705.61
2019-05-07T15:16:03.119Z,101699.70
2019-05-07T15:19:12.451Z,101700.55
2019-05-07T15:22:26.718Z,101699.05
2019-05-07T15:25:35.381Z,101698.63
2019-05-07T15:28:46.066Z,101688.74
2019-05-07T15:31:59.527Z,101688.92
2019-05-07T15:35:09.481Z,101687.67
2019-05-07T15:38:18.205Z,101686.12
2019-05-07T15:41:26.891Z,101678.02
2019-05-07T15:44:35.643Z,101673.48
2019-05-07T15:47:47.858Z,101676.03
2019-05-07T15:50:56.506Z,101674.50
2019-05-07T15:54:05.329Z,101674.57
2019-05-07T15:57:17.038Z,101678.03
2019-05-07T16:00:37.596Z,101672.19
2019-05-07T16:03:46.778Z,101672.23
2019-05-07T16:06:55.874Z,101671.19
2019-05-07T16:10:04.511Z,101667.95
2019-05-07T16:13:15.576Z,101664.45
2019-05-07T16:16:24.116Z,101661.37
2019-05-07T16:19:32.783Z,101661.16
2019-05-07T16:22:44.791Z,101656.84
2019-05-07T16:25:55.198Z,101650.31
2019-05-07T16:29:04.617Z,101648.47
2019-05-07T16:32:13.614Z,101651.64
2019-05-07T16:35:22.821Z,101649.16
2019-05-07T16:38:32.751Z,101644.70
2019-05-07T16:41:42.341Z,101638.30
2019-05-07T16:44:52.189Z,101643.35
2019-05-07T16:48:02.983Z,101626.87
2019-05-07T16:51:09.544Z,101631.83
2019-05-07T16:54:18.325Z,101627.11
2019-05-07T16:57:39.122Z,101626.67
2019-05-07T17:00:52.869Z,101621.73
2019-05-07T17:04:18.948Z,101625.08
2019-05-07T17:07:27.475Z,101624.64
2019-05-07T17:10:36.279Z,101627.69
2019-05-07T17:13:44.914Z,101631.83
2019-05-07T17:16:53.559Z,101623.25
2019-05-07T17:20:02.947Z,101624.05
2019-05-07T17:23:22.651Z,101625.23
2019-05-07T17:26:31.433Z,101614.99
2019-05-07T17:29:40.130Z,101619.06
2019-05-07T17:32:58.985Z,101611.55
2019-05-07T17:36:07.541Z,101602.97
2019-05-07T17:39:16.300Z,101614.30
2019-05-07T17:42:24.993Z,101610.08
2019-05-07T17:45:33.647Z,101609.45
2019-05-07T17:48:42.801Z,101603.45
2019-05-07T17:51:52.611Z,101607.55
2019-05-07T17:55:03.011Z,101599.56
2019-05-07T17:58:12.880Z,101600.92
2019-05-07T18:01:53.639Z,101593.12
2019-05-07T18:05:04.213Z,101594.30
2019-05-07T18:08:12.914Z,101589.72
2019-05-07T18:11:24.175Z,101586.67
2019-05-07T18:14:32.314Z,101589.30
2019-05-07T18:17:46.973Z,101575.87
2019-05-07T18:20:55.732Z,101582.73
2019-05-07T18:24:16.811Z,101578.52
2019-05-07T18:27:25.796Z,101576.50
2019-05-07T18:30:34.495Z,101579.39
2019-05-07T18:33:48.616Z,101576.23
2019-05-07T18:36:57.151Z,101581.64
2019-05-07T18:40:14.177Z,101577.52
2019-05-07T18:43:23.020Z,101579.81
2019-05-07T18:46:32.699Z,101578.20
2019-05-07T18:49:42.903Z,101585.52
2019-05-07T18:52:52.312Z,101587.45
2019-05-07T18:56:01.700Z,101586.84
2019-05-07T18:59:12.184Z,101588.26
2019-05-07T19:02:22.564Z,101586.28
2019-05-07T19:05:32.415Z,101588.82
2019-05-07T19:08:42.265Z,101586.45
2019-05-07T19:11:52.254Z,101581.56
2019-05-07T19:15:12.614Z,101583.92
2019-05-07T19:18:22.986Z,101584.30
2019-05-07T19:21:42.371Z,101582.45
2019-05-07T19:25:03.009Z,101584.14
2019-05-07T19:28:28.349Z,101580.31
2019-05-07T19:31:37.059Z,101590.72
2019-05-07T19:34:45.724Z,101583.48
2019-05-07T19:37:54.261Z,101591.95
2019-05-07T19:41:02.910Z,101589.27
2019-05-07T19:44:12.676Z,101595.52
2019-05-07T19:47:23.321Z,101602.77
2019-05-07T19:50:42.125Z,101588.25
2019-05-07T19:53:52.577Z,101593.34
2019-05-07T19:57:02.743Z,101590.97
2019-05-07T20:00:12.872Z,101592.68
2019-05-07T20:03:22.325Z,101590.99
2019-05-07T20:06:42.898Z,101578.64
2019-05-07T20:09:52.440Z,101579.33
2019-05-07T20:13:03.067Z,101578.52
2019-05-07T20:16:15.354Z,101569.38
2019-05-07T20:19:24.115Z,101581.20
2019-05-07T20:22:33.309Z,101573.95
2019-05-07T20:25:42.160Z,101567.86
2019-05-07T20:28:52.555Z,101565.52
2019-05-07T20:32:01.230Z,101566.16
2019-05-07T20:35:10.001Z,101552.34
2019-05-07T20:38:18.774Z,101557.73
2019-05-07T20:41:27.623Z,101562.48
2019-05-07T20:44:36.302Z,101556.41
2019-05-07T20:47:44.968Z,101556.05
2019-05-07T20:50:53.620Z,101554.52
2019-05-07T20:54:39.352Z,101554.85
2019-05-07T20:57:50.985Z,101554.83
2019-05-07T21:00:58.611Z,101544.20
2019-05-07T21:04:07.255Z,101545.20
2019-05-07T21:07:15.888Z,101542.03
2019-05-07T21:10:24.687Z,101542.51
2019-05-07T21:13:34.961Z,101545.21
2019-05-07T21:16:43.802Z,101532.55
2019-05-07T21:19:52.470Z,101542.67
2019-05-07T21:23:02.691Z,101538.48
2019-05-07T21:26:13.120Z,101541.66
2019-05-07T21:29:21.830Z,101535.59
2019-05-07T21:32:42.117Z,101530.38
2019-05-07T21:35:52.281Z,101531.72
2019-05-07T21:39:02.278Z,101530.75
2019-05-07T21:42:13.848Z,101520.63
2019-05-07T21:45:23.607Z,101521.45
2019-05-07T21:48:32.754Z,101520.08
2019-05-07T21:51:40.797Z,101510.14
2019-05-07T21:55:02.366Z,101506.58
2019-05-07T21:58:35.913Z,101507.47
2019-05-07T22:01:46.777Z,101502.57
2019-05-07T22:05:11.912Z,101495.82
2019-05-07T22:08:21.918Z,101494.31
2019-05-07T22:11:32.311Z,101488.05
2019-05-07T22:14:41.136Z,101485.21
2019-05-07T22:18:00.056Z,101484.69
2019-05-07T22:21:08.691Z,101484.52
2019-05-07T22:24:17.335Z,101482.35
2019-05-07T22:27:25.968Z,101485.71
2019-05-07T22:30:45.410Z,101475.07
2019-05-07T22:34:25.154Z,101470.38
2019-05-07T22:37:33.854Z,101471.05
2019-05-07T22:40:43.417Z,101470.53
2019-05-07T22:44:02.665Z,101465.64
2019-05-07T22:47:22.673Z,101458.06
2019-05-07T22:50:33.183Z,101461.95
2019-05-07T22:53:43.357Z,101448.46
2019-05-07T22:57:17.522Z,101447.27
2019-05-07T23:00:32.239Z,101448.13
2019-05-07T23:03:42.924Z,101440.86
2019-05-07T23:06:52.838Z,101430.59
2019-05-07T23:10:02.859Z,101427.38
2019-05-07T23:13:13.029Z,101427.55
2019-05-07T23:16:23.129Z,101419.63
2019-05-07T23:19:32.721Z,101417.09
2019-05-07T23:22:42.838Z,101409.34
2019-05-07T23:25:52.389Z,101419.75
2019-05-07T23:29:11.890Z,101405.44
2019-05-07T23:32:32.984Z,101401.89
2019-05-07T23:35:42.182Z,101400.47
2019-05-07T23:38:52.052Z,101401.08
2019-05-07T23:42:07.311Z,101400.11
2019-05-07T23:45:16.818Z,101394.38
2019-05-07T23:48:25.578Z,101391.02
2019-05-07T23:51:34.222Z,101393.05
2019-05-07T23:54:42.860Z,101391.39
2019-05-07T23:57:52.501Z,101389.70
